Terminal Aerodrome Forecast
Issued by NWS San Angelo, TX

Home | Current Version | Previous Version | Text Only | Print | Product List | Glossary On
Versions: 1 2 3 4 5 6 7 8 9 10 11 12 13 14 15 16 17 18
000
FTUS44 KSJT 301100
TAFSJT
TAF
KSJT 301123Z 3012/0112 01007KT P6SM VCTS OVC040CB
     FM301230 VRB04KT P6SM VCSH BKN050 OVC200
     FM301500 18006KT P6SM SCT050 BKN250
     FM010000 15008KT P6SM FEW250=

USA.gov is the U.S. government's official web portal to all federal, state and local government web resources and services.